createdAt,value
2023-05-05T00:00:38.818Z,55.30
2023-05-05T00:03:26.399Z,55.50
2023-05-05T00:06:13.444Z,55.20
2023-05-05T00:09:00.575Z,55.50
2023-05-05T00:11:47.584Z,55.40
2023-05-05T00:14:34.611Z,55.10
2023-05-05T00:17:21.715Z,55.00
2023-05-05T00:20:09.945Z,55.10
2023-05-05T00:22:57.314Z,55.30
2023-05-05T00:25:44.439Z,55.20
2023-05-05T00:28:31.492Z,55.30
2023-05-05T00:31:19.201Z,55.50
2023-05-05T00:34:06.427Z,55.50
2023-05-05T00:36:53.913Z,55.70
2023-05-05T00:39:40.980Z,55.50
2023-05-05T00:42:37.707Z,55.60
2023-05-05T00:45:25.319Z,55.60
2023-05-05T00:48:12.644Z,55.80
2023-05-05T00:50:59.843Z,55.80
2023-05-05T00:53:50.878Z,56.10
2023-05-05T00:56:38.176Z,56.20
2023-05-05T00:59:25.866Z,56.40
2023-05-05T01:02:13.464Z,56.60
2023-05-05T01:05:01.148Z,56.90
2023-05-05T01:08:06.775Z,56.80
2023-05-05T01:11:01.169Z,57.00
2023-05-05T01:13:52.521Z,57.20
2023-05-05T01:16:55.852Z,57.60
2023-05-05T01:20:01.697Z,57.50
2023-05-05T01:22:56.912Z,58.00
2023-05-05T01:26:08.384Z,57.90
2023-05-05T01:29:22.888Z,57.70
2023-05-05T01:32:12.857Z,57.70
2023-05-05T01:35:09.995Z,58.00
2023-05-05T01:38:05.601Z,58.10
2023-05-05T01:41:03.618Z,58.20
2023-05-05T01:43:52.607Z,58.20
2023-05-05T01:46:39.620Z,58.20
2023-05-05T01:49:28.472Z,58.60
2023-05-05T01:52:16.636Z,58.50
2023-05-05T01:55:04.590Z,58.60
2023-05-05T01:57:54.557Z,58.60
2023-05-05T02:00:42.905Z,58.80
2023-05-05T02:03:32.087Z,59.00
2023-05-05T02:06:21.634Z,58.90
2023-05-05T02:09:11.774Z,58.90
2023-05-05T02:12:00.738Z,59.20
2023-05-05T02:14:48.611Z,59.10
2023-05-05T02:17:35.726Z,58.90
2023-05-05T02:20:24.779Z,58.70
2023-05-05T02:23:12.155Z,58.70
2023-05-05T02:26:07.959Z,58.60
2023-05-05T02:29:14.640Z,58.50
2023-05-05T02:32:14.182Z,58.30
2023-05-05T02:35:09.191Z,58.50
2023-05-05T02:38:05.455Z,58.60
2023-05-05T02:40:59.126Z,58.80
2023-05-05T02:43:49.270Z,59.10
2023-05-05T02:46:38.837Z,59.00
2023-05-05T02:49:26.062Z,59.00
2023-05-05T02:52:18.211Z,58.90
2023-05-05T02:55:06.482Z,59.10
2023-05-05T02:58:06.512Z,59.10
2023-05-05T03:01:42.115Z,59.40
2023-05-05T03:04:38.255Z,59.50
2023-05-05T03:07:30.611Z,59.60
2023-05-05T03:10:21.711Z,59.70
2023-05-05T03:13:16.863Z,60.00
2023-05-05T03:16:07.285Z,60.20
2023-05-05T03:18:56.852Z,60.40
2023-05-05T03:21:44.451Z,60.60
2023-05-05T03:24:31.476Z,60.60
2023-05-05T03:27:26.033Z,60.50
2023-05-05T03:30:13.412Z,60.70
2023-05-05T03:33:08.764Z,60.70
2023-05-05T03:35:56.478Z,60.50
2023-05-05T03:38:43.614Z,60.60
2023-05-05T03:41:30.666Z,60.60
2023-05-05T03:44:17.874Z,60.60
2023-05-05T03:47:05.192Z,60.70
2023-05-05T03:49:54.625Z,60.80
2023-05-05T03:52:41.779Z,60.60
2023-05-05T03:55:28.827Z,60.80
2023-05-05T03:58:16.514Z,60.70
2023-05-05T04:01:04.950Z,60.80
2023-05-05T04:03:52.198Z,61.00
2023-05-05T04:06:40.281Z,61.20
2023-05-05T04:09:27.709Z,61.20
2023-05-05T04:12:14.822Z,61.40
2023-05-05T04:15:02.035Z,61.00
2023-05-05T04:17:49.506Z,60.90
2023-05-05T04:20:36.992Z,60.70
2023-05-05T04:23:24.179Z,60.70
2023-05-05T04:26:11.617Z,60.50
2023-05-05T04:28:58.795Z,60.30
2023-05-05T04:31:46.349Z,60.00
2023-05-05T04:34:33.553Z,60.30
2023-05-05T04:37:21.060Z,59.90
2023-05-05T04:40:09.356Z,59.70
2023-05-05T04:42:57.922Z,59.40
2023-05-05T04:45:55.767Z,59.40
2023-05-05T04:48:46.932Z,59.60
2023-05-05T04:51:34.583Z,59.60
2023-05-05T04:54:22.084Z,59.80
2023-05-05T04:57:09.142Z,60.10
2023-05-05T04:59:57.080Z,60.10
2023-05-05T05:02:44.263Z,60.20
2023-05-05T05:05:31.433Z,60.20
2023-05-05T05:08:18.827Z,60.40
2023-05-05T05:11:06.370Z,60.70
2023-05-05T05:13:53.528Z,60.80
2023-05-05T05:16:40.561Z,61.10
2023-05-05T05:19:28.864Z,61.50
2023-05-05T05:22:15.950Z,61.90
2023-05-05T05:25:04.511Z,62.00
2023-05-05T05:28:02.222Z,61.90
2023-05-05T05:30:57.596Z,61.40
2023-05-05T05:33:45.150Z,61.30
2023-05-05T05:36:34.067Z,61.10
2023-05-05T05:39:21.836Z,60.80
2023-05-05T05:42:08.907Z,60.70
2023-05-05T05:44:58.393Z,60.50
2023-05-05T05:47:45.959Z,60.40
2023-05-05T05:50:33.199Z,60.30
2023-05-05T05:53:22.470Z,60.10
2023-05-05T05:56:10.647Z,60.00
2023-05-05T05:58:58.323Z,59.70
2023-05-05T06:01:45.371Z,59.40
2023-05-05T06:04:32.611Z,59.40
2023-05-05T06:07:20.618Z,59.10
2023-05-05T06:10:25.894Z,59.00
2023-05-05T06:13:19.381Z,58.50
2023-05-05T06:16:10.047Z,58.50
2023-05-05T06:18:58.857Z,58.30
2023-05-05T06:21:45.922Z,58.30
2023-05-05T06:24:33.137Z,58.10
2023-05-05T06:27:20.653Z,57.90
2023-05-05T06:30:09.398Z,57.50
2023-05-05T06:32:56.869Z,57.20
2023-05-05T06:35:43.963Z,57.60
2023-05-05T06:38:31.008Z,57.50
2023-05-05T06:41:18.247Z,57.50
2023-05-05T06:44:05.519Z,57.90
2023-05-05T06:46:53.729Z,58.20
2023-05-05T06:49:40.772Z,58.00
2023-05-05T06:52:27.814Z,57.90
2023-05-05T06:55:14.789Z,57.30
2023-05-05T06:58:02.131Z,56.70
2023-05-05T07:00:49.189Z,56.30
2023-05-05T07:03:36.246Z,56.50
2023-05-05T07:06:23.445Z,56.60
2023-05-05T07:09:10.513Z,56.40
2023-05-05T07:11:57.528Z,55.80
2023-05-05T07:14:45.966Z,55.90
2023-05-05T07:17:33.079Z,55.30
2023-05-05T07:20:20.141Z,55.40
2023-05-05T07:23:07.182Z,55.00
2023-05-05T07:25:55.071Z,54.80
2023-05-05T07:28:43.112Z,54.70
2023-05-05T07:31:30.397Z,54.50
2023-05-05T07:34:17.442Z,54.60
2023-05-05T07:37:05.127Z,55.30
2023-05-05T07:39:52.120Z,55.00
2023-05-05T07:42:39.274Z,55.20
2023-05-05T07:45:26.650Z,55.40
2023-05-05T07:48:13.652Z,55.00
2023-05-05T07:51:00.754Z,55.50
2023-05-05T07:53:47.828Z,55.10
2023-05-05T07:56:34.911Z,55.40
2023-05-05T07:59:22.150Z,55.70
2023-05-05T08:02:12.548Z,55.00
2023-05-05T08:04:59.610Z,56.10
2023-05-05T08:07:46.978Z,58.10
2023-05-05T08:10:34.091Z,57.90
2023-05-05T08:13:21.166Z,59.10
2023-05-05T08:16:09.039Z,59.80
2023-05-05T08:18:56.284Z,64.10
2023-05-05T08:21:43.357Z,70.10
2023-05-05T08:24:30.808Z,68.20
2023-05-05T08:27:17.848Z,68.90
2023-05-05T08:30:05.612Z,72.10
2023-05-05T08:32:52.756Z,71.80
2023-05-05T08:35:39.952Z,71.70
2023-05-05T08:38:27.141Z,71.40
2023-05-05T08:41:17.968Z,72.20
2023-05-05T08:44:05.053Z,71.40
2023-05-05T08:46:53.106Z,71.10
2023-05-05T08:49:45.773Z,71.30
2023-05-05T08:52:44.002Z,71.60
2023-05-05T08:55:35.279Z,72.90
2023-05-05T08:58:23.582Z,73.50
2023-05-05T09:01:11.440Z,72.00
2023-05-05T09:03:59.606Z,71.20
2023-05-05T09:06:46.742Z,70.70
2023-05-05T09:09:34.146Z,68.30
2023-05-05T09:12:22.320Z,68.00
2023-05-05T09:15:11.604Z,67.50
2023-05-05T09:17:59.880Z,67.90
2023-05-05T09:20:47.036Z,67.00
2023-05-05T09:23:34.085Z,66.20
2023-05-05T09:26:21.275Z,66.20
2023-05-05T09:29:08.342Z,64.30
2023-05-05T09:32:05.496Z,64.70
2023-05-05T09:35:01.852Z,64.10
2023-05-05T09:37:48.947Z,64.10
2023-05-05T09:40:46.615Z,64.70
2023-05-05T09:43:51.852Z,64.70
2023-05-05T09:46:49.139Z,63.90
2023-05-05T09:49:38.375Z,63.80
2023-05-05T09:52:25.611Z,63.60
2023-05-05T09:55:19.003Z,63.50
2023-05-05T09:58:18.412Z,61.60
2023-05-05T10:01:05.770Z,61.00
2023-05-05T10:03:52.834Z,61.80
2023-05-05T10:06:44.220Z,61.90
2023-05-05T10:09:34.087Z,61.20
2023-05-05T10:12:21.508Z,61.20
2023-05-05T10:15:10.155Z,61.80
2023-05-05T10:18:07.683Z,61.70
2023-05-05T10:20:57.828Z,61.90
2023-05-05T10:24:02.222Z,62.10
2023-05-05T10:26:51.889Z,61.90
2023-05-05T10:29:54.951Z,61.60
2023-05-05T10:32:57.366Z,60.80
2023-05-05T10:35:59.530Z,60.20
2023-05-05T10:38:46.673Z,60.00
2023-05-05T10:41:34.822Z,61.10
2023-05-05T10:44:22.960Z,61.10
2023-05-05T10:47:10.860Z,61.20
2023-05-05T10:50:07.356Z,60.40
2023-05-05T10:53:19.299Z,60.80
2023-05-05T10:56:40.219Z,60.70
2023-05-05T10:59:39.179Z,60.80
2023-05-05T11:02:28.938Z,58.70
2023-05-05T11:05:23.336Z,58.40
2023-05-05T11:08:26.995Z,58.20
2023-05-05T11:11:14.279Z,59.00
2023-05-05T11:14:22.277Z,59.30
2023-05-05T11:17:48.016Z,60.00
2023-05-05T11:20:40.803Z,58.10
2023-05-05T11:23:28.702Z,58.20
2023-05-05T11:26:17.587Z,58.00
2023-05-05T11:29:05.273Z,57.90
2023-05-05T11:32:11.585Z,58.40
2023-05-05T11:34:58.687Z,58.10
2023-05-05T11:37:46.352Z,57.50
2023-05-05T11:40:36.768Z,57.60
2023-05-05T11:43:23.833Z,56.80
2023-05-05T11:46:12.354Z,56.10
2023-05-05T11:48:59.406Z,56.00
2023-05-05T11:51:59.614Z,56.10
2023-05-05T11:54:48.569Z,55.90
2023-05-05T11:57:35.610Z,56.70
2023-05-05T12:00:32.930Z,56.40
2023-05-05T12:03:20.141Z,56.20
2023-05-05T12:06:08.606Z,56.40
2023-05-05T12:08:55.830Z,56.40
2023-05-05T12:11:53.309Z,56.60
2023-05-05T12:14:54.130Z,57.00
2023-05-05T12:17:44.853Z,56.70
2023-05-05T12:20:33.432Z,57.00
2023-05-05T12:23:21.128Z,56.80
2023-05-05T12:26:08.890Z,56.50
2023-05-05T12:28:59.547Z,56.10
2023-05-05T12:31:46.614Z,56.40
2023-05-05T12:34:33.814Z,55.70
2023-05-05T12:37:22.509Z,55.80
2023-05-05T12:40:42.188Z,54.80
2023-05-05T12:43:33.869Z,55.40
2023-05-05T12:46:21.070Z,56.00
2023-05-05T12:49:09.624Z,55.70
2023-05-05T12:51:57.151Z,55.80
2023-05-05T12:54:58.584Z,55.80
2023-05-05T12:58:04.728Z,55.50
2023-05-05T13:01:10.948Z,55.10
2023-05-05T13:04:13.886Z,55.60
2023-05-05T13:07:13.752Z,55.80
2023-05-05T13:10:09.774Z,55.60
2023-05-05T13:12:57.832Z,56.20
2023-05-05T13:15:44.989Z,56.50
2023-05-05T13:18:32.048Z,55.80
2023-05-05T13:21:19.330Z,55.70
2023-05-05T13:24:21.328Z,56.10
2023-05-05T13:27:12.902Z,54.70
2023-05-05T13:30:00.188Z,55.00
2023-05-05T13:32:47.236Z,54.70
2023-05-05T13:35:34.281Z,55.00
2023-05-05T13:38:21.484Z,54.30
2023-05-05T13:41:08.499Z,54.50
2023-05-05T13:43:56.457Z,53.90
2023-05-05T13:46:43.537Z,53.90
2023-05-05T13:49:30.609Z,54.40
2023-05-05T13:52:18.097Z,54.40
2023-05-05T13:55:05.712Z,54.70
2023-05-05T13:57:52.785Z,54.60
2023-05-05T14:00:40.423Z,54.60
2023-05-05T14:03:27.486Z,55.70
2023-05-05T14:06:14.612Z,55.80
2023-05-05T14:09:01.701Z,56.30
2023-05-05T14:11:48.719Z,56.80
2023-05-05T14:14:36.017Z,56.90
2023-05-05T14:17:23.154Z,57.10
2023-05-05T14:20:10.823Z,57.80
2023-05-05T14:22:57.880Z,59.60
2023-05-05T14:25:44.882Z,60.40
2023-05-05T14:28:31.955Z,61.20
2023-05-05T14:31:18.931Z,62.70
2023-05-05T14:34:05.944Z,64.20
2023-05-05T14:36:52.918Z,65.90
2023-05-05T14:39:39.930Z,67.60
2023-05-05T14:42:27.030Z,69.40
2023-05-05T14:45:14.053Z,70.50
2023-05-05T14:48:01.048Z,71.20
2023-05-05T14:50:48.747Z,72.00
2023-05-05T14:53:35.846Z,72.50
2023-05-05T14:56:24.304Z,73.40
2023-05-05T14:59:11.319Z,75.10
2023-05-05T15:01:58.457Z,76.60
2023-05-05T15:04:45.853Z,77.60
2023-05-05T15:07:33.751Z,78.70
2023-05-05T15:10:22.056Z,82.10
2023-05-05T15:13:09.404Z,84.30
2023-05-05T15:15:56.511Z,82.90
2023-05-05T15:18:43.610Z,82.10
2023-05-05T15:21:31.759Z,82.00
2023-05-05T15:24:19.747Z,82.50
2023-05-05T15:27:07.051Z,82.70
2023-05-05T15:29:55.181Z,84.40
2023-05-05T15:32:42.864Z,84.90
2023-05-05T15:35:30.023Z,84.50
2023-05-05T15:38:16.999Z,83.80
2023-05-05T15:41:06.956Z,83.00
2023-05-05T15:43:53.943Z,83.40
2023-05-05T15:46:41.145Z,83.80
2023-05-05T15:49:28.161Z,82.90
2023-05-05T15:52:15.298Z,83.70
2023-05-05T15:55:02.255Z,87.10
2023-05-05T15:57:49.303Z,89.10
2023-05-05T16:00:36.364Z,92.40
2023-05-05T16:03:23.463Z,93.60
2023-05-05T16:06:13.672Z,94.40
2023-05-05T16:09:00.698Z,95.70
2023-05-05T16:11:48.049Z,96.00
2023-05-05T16:14:35.064Z,96.40
2023-05-05T16:17:22.797Z,96.70
2023-05-05T16:20:10.674Z,97.00
2023-05-05T16:22:57.701Z,97.20
2023-05-05T16:25:44.835Z,97.40
2023-05-05T16:28:34.092Z,97.50
2023-05-05T16:31:21.232Z,97.50
2023-05-05T16:34:08.403Z,97.60
2023-05-05T16:36:55.999Z,97.60
2023-05-05T16:39:43.102Z,97.70
2023-05-05T16:42:30.134Z,97.60
2023-05-05T16:45:17.175Z,97.70
2023-05-05T16:48:05.627Z,97.70
2023-05-05T16:50:56.486Z,97.60
2023-05-05T16:53:43.539Z,97.60
2023-05-05T16:56:30.704Z,97.70
2023-05-05T16:59:19.139Z,97.80
2023-05-05T17:02:06.187Z,97.90
2023-05-05T17:04:53.320Z,98.00
2023-05-05T17:07:40.605Z,98.00
2023-05-05T17:10:27.632Z,98.00
2023-05-05T17:13:15.021Z,98.10
2023-05-05T17:16:02.134Z,98.20
2023-05-05T17:18:49.143Z,98.20
2023-05-05T17:21:36.169Z,98.20
2023-05-05T17:24:23.988Z,98.20
2023-05-05T17:27:11.204Z,98.20
2023-05-05T17:29:58.606Z,98.20
2023-05-05T17:32:46.172Z,98.20
2023-05-05T17:35:33.213Z,98.20
2023-05-05T17:38:20.229Z,98.20
2023-05-05T17:41:07.461Z,98.20
2023-05-05T17:43:54.538Z,98.20
2023-05-05T17:46:41.855Z,98.20
2023-05-05T17:49:28.900Z,98.20
2023-05-05T17:52:15.930Z,98.10
2023-05-05T17:55:03.018Z,98.10
2023-05-05T17:57:50.204Z,98.10
2023-05-05T18:00:37.355Z,98.10
2023-05-05T18:03:24.657Z,98.00
2023-05-05T18:06:11.938Z,98.00
2023-05-05T18:08:58.989Z,98.00
2023-05-05T18:11:46.054Z,98.00
2023-05-05T18:14:33.332Z,98.00
2023-05-05T18:17:21.108Z,98.00
2023-05-05T18:20:08.744Z,97.80
2023-05-05T18:22:55.876Z,97.80
2023-05-05T18:25:42.897Z,97.80
2023-05-05T18:28:29.919Z,97.70
2023-05-05T18:31:16.978Z,97.60
2023-05-05T18:34:04.004Z,97.50
2023-05-05T18:36:53.458Z,97.50
2023-05-05T18:39:42.665Z,97.50
2023-05-05T18:42:31.065Z,97.30
2023-05-05T18:45:18.097Z,97.10
2023-05-05T18:48:05.605Z,97.00
2023-05-05T18:50:52.886Z,96.70
2023-05-05T18:53:39.883Z,96.30
2023-05-05T18:56:27.044Z,96.00
2023-05-05T18:59:14.098Z,95.90
2023-05-05T19:02:02.260Z,95.50
2023-05-05T19:04:49.329Z,95.20
2023-05-05T19:07:36.652Z,94.60
2023-05-05T19:10:23.688Z,94.30
2023-05-05T19:13:11.301Z,94.00
2023-05-05T19:15:58.390Z,94.40
2023-05-05T19:18:45.516Z,94.60
2023-05-05T19:21:32.490Z,94.30
2023-05-05T19:24:19.551Z,94.30
2023-05-05T19:27:08.038Z,93.90
2023-05-05T19:29:55.306Z,92.50
2023-05-05T19:32:42.497Z,92.60
2023-05-05T19:35:31.145Z,92.50
2023-05-05T19:38:18.178Z,91.90
2023-05-05T19:41:05.350Z,92.20
2023-05-05T19:43:52.637Z,91.70
2023-05-05T19:46:39.732Z,91.90
2023-05-05T19:49:26.964Z,91.70
2023-05-05T19:52:14.101Z,92.10
2023-05-05T19:55:01.499Z,91.70
2023-05-05T19:57:48.542Z,92.30
2023-05-05T20:00:35.989Z,92.70
2023-05-05T20:03:23.099Z,92.90
2023-05-05T20:06:10.171Z,92.90
2023-05-05T20:08:57.284Z,93.10
2023-05-05T20:11:44.426Z,93.20
2023-05-05T20:14:31.498Z,93.40
2023-05-05T20:17:20.158Z,93.40
2023-05-05T20:20:07.907Z,93.40
2023-05-05T20:22:54.947Z,93.70
2023-05-05T20:25:41.988Z,93.60
2023-05-05T20:28:31.409Z,93.80
2023-05-05T20:31:18.556Z,93.90
2023-05-05T20:34:06.006Z,94.10
2023-05-05T20:36:54.103Z,94.20
2023-05-05T20:39:42.239Z,94.30
2023-05-05T20:42:29.677Z,94.40
2023-05-05T20:45:16.930Z,94.30
2023-05-05T20:48:05.545Z,94.00
2023-05-05T20:50:52.811Z,94.00
2023-05-05T20:53:39.901Z,94.10
2023-05-05T20:56:26.970Z,94.10
2023-05-05T20:59:13.972Z,94.30
2023-05-05T21:02:01.061Z,94.10
2023-05-05T21:04:48.154Z,94.00
2023-05-05T21:07:35.260Z,94.10
2023-05-05T21:10:22.364Z,94.20
2023-05-05T21:13:09.479Z,94.20
2023-05-05T21:15:56.676Z,94.30
2023-05-05T21:18:46.619Z,94.40
2023-05-05T21:21:33.850Z,94.50
2023-05-05T21:24:21.034Z,94.50
2023-05-05T21:27:08.018Z,94.50
2023-05-05T21:29:54.972Z,94.30
2023-05-05T21:32:42.207Z,94.30
2023-05-05T21:35:29.262Z,94.20
2023-05-05T21:38:16.601Z,94.20
2023-05-05T21:41:03.686Z,94.30
2023-05-05T21:43:50.761Z,94.40
2023-05-05T21:46:37.926Z,94.10
2023-05-05T21:49:24.973Z,94.30
2023-05-05T21:52:12.069Z,94.10
2023-05-05T21:54:59.111Z,94.10
2023-05-05T21:57:46.221Z,94.00
2023-05-05T22:00:33.295Z,94.10
2023-05-05T22:03:20.789Z,94.20
2023-05-05T22:06:07.929Z,94.30
2023-05-05T22:08:56.585Z,94.50
2023-05-05T22:11:43.705Z,94.60
2023-05-05T22:14:30.747Z,94.70
2023-05-05T22:17:18.098Z,94.80
2023-05-05T22:20:05.827Z,94.80
2023-05-05T22:22:52.943Z,94.70
2023-05-05T22:25:40.131Z,94.60
2023-05-05T22:28:27.720Z,94.50
2023-05-05T22:31:15.040Z,94.30
2023-05-05T22:34:02.437Z,94.30
2023-05-05T22:36:49.873Z,94.10
2023-05-05T22:39:36.926Z,94.30
2023-05-05T22:42:24.056Z,94.50
2023-05-05T22:45:11.805Z,94.40
2023-05-05T22:47:59.321Z,94.50
2023-05-05T22:50:46.566Z,94.60
2023-05-05T22:53:33.809Z,94.70
2023-05-05T22:56:20.990Z,94.70
2023-05-05T22:59:08.131Z,94.80
2023-05-05T23:01:55.753Z,94.70
2023-05-05T23:04:46.253Z,94.40
2023-05-05T23:07:33.546Z,94.00
2023-05-05T23:10:20.613Z,93.40
2023-05-05T23:13:07.767Z,93.20
2023-05-05T23:15:54.887Z,93.40
2023-05-05T23:18:42.020Z,93.50
2023-05-05T23:21:29.368Z,93.30
2023-05-05T23:24:19.122Z,93.40
2023-05-05T23:27:06.127Z,93.40
2023-05-05T23:29:53.289Z,92.80
2023-05-05T23:32:40.436Z,92.50
2023-05-05T23:35:27.725Z,92.50
2023-05-05T23:38:14.786Z,92.40
2023-05-05T23:41:01.981Z,92.10
2023-05-05T23:43:49.045Z,91.90
2023-05-05T23:46:36.296Z,92.20
2023-05-05T23:49:24.879Z,92.30
2023-05-05T23:52:12.615Z,92.20
2023-05-05T23:55:00.212Z,92.20
2023-05-05T23:57:47.288Z,92.20
